Time;durP1;ratioP1;P1;durP2;ratioP2;P2;SDS_P1;SDS_P2;PMS_P1;PMS_P2;Temp;Humidity;BMP_temperature;BMP_pressure;BME280_temperature;BME280_humidity;BME280_pressure;Samples;Min_cycle;Max_cycle;Signal;HPM_P1;HPM_P2
2021/07/27 00:01:10;;;;;;;4.28;3.28;;;23.90;99.90;;;;;;5050771;28;20191;-77
2021/07/27 00:03:38;;;;;;;4.57;3.50;;;23.90;99.90;;;;;;5037392;28;20460;-77
2021/07/27 00:06:08;;;;;;;4.78;3.47;;;23.90;99.90;;;;;;5047272;28;20673;-78
2021/07/27 00:08:39;;;;;;;4.50;3.85;;;24.00;99.90;;;;;;5060756;28;20191;-78
2021/07/27 00:11:08;;;;;;;8.48;3.50;;;24.00;99.90;;;;;;5033791;28;20202;-78
2021/07/27 00:13:39;;;;;;;7.72;4.47;;;24.00;99.90;;;;;;5043395;28;20242;-78
2021/07/27 00:16:06;;;;;;;5.95;3.78;;;24.00;99.90;;;;;;5029459;28;20183;-77
2021/07/27 00:18:33;;;;;;;7.55;3.65;;;24.00;99.90;;;;;;5031996;28;20667;-77
2021/07/27 00:21:06;;;;;;;5.15;3.20;;;24.00;99.90;;;;;;5048337;28;20274;-76
2021/07/27 00:23:38;;;;;;;6.32;3.60;;;24.00;99.90;;;;;;5066487;28;20552;-78
2021/07/27 00:26:14;;;;;;;7.10;3.83;;;24.00;99.90;;;;;;5037563;28;20266;-78
2021/07/27 00:28:42;;;;;;;4.70;3.53;;;24.00;99.90;;;;;;5032985;28;20183;-76
2021/07/27 00:31:16;;;;;;;5.85;3.70;;;24.00;99.90;;;;;;5049840;28;20279;-77
2021/07/27 00:33:44;;;;;;;5.93;3.67;;;23.90;99.90;;;;;;5050419;28;20183;-78
2021/07/27 00:36:10;;;;;;;5.38;3.60;;;23.90;99.90;;;;;;5030625;28;20191;-77
2021/07/27 00:38:36;;;;;;;5.72;3.90;;;23.80;99.90;;;;;;5045495;28;20269;-78
2021/07/27 00:41:03;;;;;;;7.07;3.70;;;23.80;99.90;;;;;;5049245;28;20214;-78
2021/07/27 00:43:30;;;;;;;6.13;3.80;;;23.80;99.90;;;;;;5028702;28;20319;-75
2021/07/27 00:45:56;;;;;;;5.35;3.70;;;23.80;99.90;;;;;;5025504;28;20203;-78
2021/07/27 00:48:23;;;;;;;4.55;3.80;;;23.70;99.90;;;;;;5046540;28;20259;-78
2021/07/27 00:50:49;;;;;;;6.78;3.40;;;23.70;99.90;;;;;;5029421;28;20196;-78
2021/07/27 00:53:16;;;;;;;7.38;3.45;;;23.70;99.90;;;;;;5029744;28;20193;-78
2021/07/27 00:55:43;;;;;;;4.72;3.80;;;23.70;99.90;;;;;;5051499;28;20186;-77
2021/07/27 00:58:09;;;;;;;6.72;4.32;;;23.60;99.90;;;;;;5064206;28;20695;-78
2021/07/27 01:00:35;;;;;;;9.93;3.70;;;23.60;99.90;;;;;;5047431;28;20223;-78
2021/07/27 01:03:02;;;;;;;5.88;4.13;;;23.60;99.90;;;;;;5026907;28;20224;-78
2021/07/27 01:05:29;;;;;;;4.85;3.95;;;23.60;99.90;;;;;;5044008;28;20196;-78
2021/07/27 01:08:00;;;;;;;4.15;3.50;;;23.60;99.90;;;;;;5032908;28;20211;-78
2021/07/27 01:10:26;;;;;;;5.77;3.80;;;23.60;99.90;;;;;;5046845;28;20188;-77
2021/07/27 01:12:53;;;;;;;4.72;3.70;;;23.50;99.90;;;;;;5041892;28;20528;-78
2021/07/27 01:15:19;;;;;;;5.13;3.42;;;23.50;99.90;;;;;;5044954;28;20967;-78
2021/07/27 01:17:45;;;;;;;6.57;3.47;;;23.50;99.90;;;;;;5031211;28;20175;-77
2021/07/27 01:39:39;;;;;;;5.57;3.63;;;23.50;99.90;;;;;;5046087;28;20211;-77
2021/07/27 01:42:14;;;;;;;4.63;3.53;;;23.50;99.90;;;;;;5030083;28;20180;-78
2021/07/27 01:44:49;;;;;;;7.95;3.63;;;23.50;99.90;;;;;;5044364;28;20198;-78
2021/07/27 01:47:21;;;;;;;4.38;3.75;;;23.50;99.90;;;;;;5039988;28;20628;-77
2021/07/27 01:49:50;;;;;;;4.80;3.60;;;23.50;99.90;;;;;;5044707;28;20339;-77
2021/07/27 01:52:18;;;;;;;10.43;4.00;;;23.50;99.90;;;;;;5029173;28;20297;-77
2021/07/27 01:54:52;;;;;;;5.55;3.60;;;23.40;99.90;;;;;;5029497;28;20618;-77
2021/07/27 01:57:26;;;;;;;5.87;3.80;;;23.40;99.90;;;;;;5046251;28;20184;-77
2021/07/27 01:59:58;;;;;;;6.55;3.80;;;23.40;99.90;;;;;;5047753;28;20211;-78
2021/07/27 02:02:28;;;;;;;5.32;3.42;;;23.30;99.90;;;;;;5028221;28;20708;-78
2021/07/27 02:04:54;;;;;;;4.07;3.35;;;23.30;99.90;;;;;;5057442;28;20946;-77
2021/07/27 02:07:20;;;;;;;4.57;3.60;;;23.30;99.90;;;;;;5046755;28;20180;-77
2021/07/27 02:09:50;;;;;;;5.70;3.97;;;23.30;99.90;;;;;;5044468;28;20192;-78
2021/07/27 02:12:23;;;;;;;5.67;3.63;;;23.30;99.90;;;;;;5064213;28;20188;-77
2021/07/27 02:15:16;;;;;;;4.27;3.60;;;23.30;99.90;;;;;;5044208;28;20197;-78
2021/07/27 02:17:43;;;;;;;6.30;3.90;;;23.30;99.90;;;;;;5031009;28;20184;-77
2021/07/27 02:20:17;;;;;;;6.00;3.67;;;23.30;99.90;;;;;;5042137;28;20235;-77
2021/07/27 02:22:44;;;;;;;6.05;3.70;;;23.20;99.90;;;;;;5046904;28;20206;-78
2021/07/27 02:25:15;;;;;;;7.63;3.57;;;23.20;99.90;;;;;;5031067;28;20210;-77
2021/07/27 02:27:42;;;;;;;4.43;3.43;;;23.20;99.90;;;;;;5045504;28;20176;-77
2021/07/27 02:30:08;;;;;;;9.20;4.03;;;23.20;99.90;;;;;;5030970;28;20241;-77
2021/07/27 02:32:39;;;;;;;4.88;3.88;;;23.20;99.90;;;;;;5065736;28;20226;-77
2021/07/27 02:35:07;;;;;;;6.27;4.00;;;23.20;99.90;;;;;;5057111;28;20195;-77
2021/07/27 02:37:43;;;;;;;6.53;3.83;;;23.10;99.90;;;;;;5048837;28;20191;-77
2021/07/27 02:40:10;;;;;;;5.80;3.40;;;23.10;99.90;;;;;;5030886;28;20310;-77
2021/07/27 02:42:37;;;;;;;11.20;4.25;;;23.10;99.90;;;;;;5062019;28;20239;-78
2021/07/27 02:45:13;;;;;;;7.47;3.70;;;23.10;99.90;;;;;;5031891;28;20809;-77
2021/07/27 02:47:41;;;;;;;5.93;3.90;;;23.10;99.90;;;;;;5043324;28;20645;-77
2021/07/27 02:50:11;;;;;;;5.40;3.67;;;23.10;99.90;;;;;;5041000;28;20179;-78
2021/07/27 02:52:40;;;;;;;7.20;3.80;;;23.10;99.90;;;;;;5026309;28;20194;-77
2021/07/27 02:55:07;;;;;;;5.05;3.80;;;23.00;99.90;;;;;;5054313;28;20257;-77
2021/07/27 02:57:33;;;;;;;6.43;3.80;;;23.00;99.90;;;;;;5043527;28;20198;-77
2021/07/27 03:00:00;;;;;;;6.60;3.80;;;23.10;99.90;;;;;;5040018;28;20838;-78
2021/07/27 03:02:43;;;;;;;5.93;3.80;;;23.00;99.90;;;;;;5026360;28;20329;-77
2021/07/27 03:05:10;;;;;;;4.27;3.40;;;23.10;99.90;;;;;;5044510;28;20175;-77
2021/07/27 03:07:51;;;;;;;6.40;3.70;;;23.00;99.90;;;;;;5062743;28;20218;-77
2021/07/27 03:10:22;;;;;;;6.53;3.73;;;23.00;99.90;;;;;;5041125;28;20267;-77
2021/07/27 03:13:01;;;;;;;7.40;3.70;;;23.10;99.90;;;;;;5045920;28;20179;-77
2021/07/27 03:15:29;;;;;;;6.33;3.97;;;23.10;99.90;;;;;;5031087;28;20194;-79
2021/07/27 03:17:59;;;;;;;5.27;3.57;;;23.00;99.90;;;;;;5049665;28;20704;-78
2021/07/27 03:20:31;;;;;;;4.50;3.53;;;23.10;99.90;;;;;;5028593;28;20225;-79
2021/07/27 03:23:21;;;;;;;5.93;4.07;;;23.10;99.90;;;;;;5061322;28;20184;-78
2021/07/27 03:25:47;;;;;;;5.78;3.92;;;23.10;99.90;;;;;;5046069;28;20207;-80
2021/07/27 03:28:18;;;;;;;10.23;4.10;;;23.00;99.90;;;;;;5027195;28;20206;-79
2021/07/27 03:30:44;;;;;;;6.67;3.70;;;23.00;99.90;;;;;;5029361;28;20184;-79
2021/07/27 03:33:14;;;;;;;7.72;3.67;;;23.00;99.90;;;;;;5031092;28;20266;-79
2021/07/27 03:35:40;;;;;;;7.97;3.70;;;23.10;99.90;;;;;;5048566;28;20734;-78
2021/07/27 03:38:13;;;;;;;5.60;3.60;;;23.10;99.90;;;;;;5022341;28;20282;-79
2021/07/27 03:40:39;;;;;;;6.47;4.13;;;23.10;99.90;;;;;;5051614;28;20195;-79
2021/07/27 03:43:05;;;;;;;6.07;3.80;;;23.10;99.90;;;;;;5032982;28;20651;-79
2021/07/27 03:45:32;;;;;;;5.03;3.63;;;23.10;99.90;;;;;;5049173;28;20199;-79
2021/07/27 03:48:01;;;;;;;6.38;3.58;;;23.10;99.90;;;;;;5032996;28;20242;-79
2021/07/27 03:50:28;;;;;;;5.63;3.27;;;23.10;99.90;;;;;;5029511;28;20183;-78
2021/07/27 03:52:54;;;;;;;4.85;3.30;;;23.10;99.90;;;;;;5030617;28;20195;-78
2021/07/27 03:55:20;;;;;;;6.00;3.10;;;23.10;99.90;;;;;;5047415;28;20179;-79
2021/07/27 03:57:47;;;;;;;3.83;3.00;;;23.10;99.90;;;;;;5066903;28;20278;-79
2021/07/27 04:00:14;;;;;;;9.90;3.50;;;23.10;99.90;;;;;;5030867;28;20237;-79
2021/07/27 04:02:49;;;;;;;8.70;3.33;;;23.10;99.90;;;;;;5029539;28;20770;-79
2021/07/27 04:05:15;;;;;;;4.43;3.55;;;23.20;99.90;;;;;;5027290;28;20182;-78
2021/07/27 04:07:42;;;;;;;5.33;3.63;;;23.20;99.90;;;;;;5046542;28;20179;-79
2021/07/27 04:10:20;;;;;;;6.25;3.17;;;23.20;99.90;;;;;;5038325;28;20184;-79
2021/07/27 04:12:48;;;;;;;8.68;3.38;;;23.20;99.90;;;;;;5043377;28;20647;-78
2021/07/27 04:15:29;;;;;;;6.35;3.22;;;23.20;99.90;;;;;;5029573;28;20266;-78
2021/07/27 04:17:55;;;;;;;6.68;3.40;;;23.30;99.90;;;;;;5028489;28;20238;-78
2021/07/27 04:20:22;;;;;;;7.30;3.60;;;23.30;99.90;;;;;;5027957;28;20262;-79
2021/07/27 04:22:50;;;;;;;4.55;3.15;;;23.30;99.90;;;;;;5027971;28;20203;-79
2021/07/27 04:25:16;;;;;;;5.65;3.40;;;23.40;99.90;;;;;;5047140;28;20171;-79
2021/07/27 04:27:51;;;;;;;5.45;3.55;;;23.40;99.90;;;;;;5028718;28;20207;-78
2021/07/27 04:30:17;;;;;;;7.87;3.40;;;23.50;99.90;;;;;;5030418;28;20217;-79
2021/07/27 04:32:44;;;;;;;6.90;3.67;;;23.50;99.90;;;;;;5033406;28;21036;-78
2021/07/27 04:35:18;;;;;;;7.82;3.70;;;23.60;99.90;;;;;;5027914;28;20232;-79
2021/07/27 04:37:44;;;;;;;5.47;3.00;;;23.60;99.90;;;;;;5033582;28;20186;-79
2021/07/27 04:40:11;;;;;;;4.30;3.70;;;23.70;99.90;;;;;;5034749;28;20853;-77
2021/07/27 04:42:37;;;;;;;4.68;3.75;;;23.70;99.90;;;;;;5046017;28;20184;-79
2021/07/27 04:45:04;;;;;;;5.07;3.60;;;23.70;99.90;;;;;;5046654;28;20196;-79
2021/07/27 04:47:43;;;;;;;4.07;3.67;;;23.80;99.90;;;;;;5046781;28;20668;-78
2021/07/27 04:50:10;;;;;;;4.18;3.40;;;23.80;99.90;;;;;;5047335;28;20195;-78
2021/07/27 04:52:37;;;;;;;5.00;3.47;;;23.90;99.90;;;;;;5059550;28;20183;-79
2021/07/27 04:55:06;;;;;;;4.45;3.90;;;23.90;99.90;;;;;;5034299;28;20203;-79
2021/07/27 04:57:33;;;;;;;5.22;3.50;;;23.90;99.90;;;;;;5047701;28;20586;-78
2021/07/27 05:00:03;;;;;;;4.50;3.53;;;24.00;99.90;;;;;;5045975;28;20211;-78
2021/07/27 05:02:30;;;;;;;4.85;3.53;;;24.10;99.90;;;;;;5050385;28;20234;-78
2021/07/27 05:04:56;;;;;;;4.82;4.00;;;24.10;99.90;;;;;;5048092;28;20692;-76
2021/07/27 05:07:26;;;;;;;4.35;3.60;;;24.10;99.90;;;;;;5060894;28;20183;-77
2021/07/27 05:09:52;;;;;;;7.05;3.60;;;24.10;99.90;;;;;;5038316;28;20619;-77
2021/07/27 05:12:18;;;;;;;7.05;3.97;;;24.20;99.90;;;;;;5047894;28;20194;-77
2021/07/27 05:14:46;;;;;;;5.40;3.60;;;24.30;99.90;;;;;;5046111;28;20188;-78
2021/07/27 05:17:13;;;;;;;8.00;3.50;;;24.30;99.90;;;;;;5031616;28;20188;-76
2021/07/27 05:19:53;;;;;;;8.10;3.78;;;24.50;99.90;;;;;;5061243;28;21140;-76
2021/07/27 05:22:22;;;;;;;7.20;3.75;;;24.70;99.90;;;;;;5018377;28;20180;-77
2021/07/27 05:24:50;;;;;;;9.85;4.00;;;24.90;99.90;;;;;;5039971;28;20274;-76
2021/07/27 05:27:21;;;;;;;6.53;3.67;;;25.10;99.90;;;;;;5048586;28;20188;-75
2021/07/27 05:29:52;;;;;;;5.28;3.50;;;25.00;99.90;;;;;;5049025;28;20187;-76
2021/07/27 05:32:19;;;;;;;5.82;3.60;;;24.90;99.90;;;;;;5055126;28;20195;-78
2021/07/27 05:34:46;;;;;;;6.70;4.10;;;25.00;99.90;;;;;;5045251;28;20252;-76
2021/07/27 05:37:17;;;;;;;6.57;4.03;;;25.10;99.90;;;;;;5042141;28;20195;-76
2021/07/27 05:39:44;;;;;;;6.50;3.97;;;25.30;99.90;;;;;;5028431;28;20219;-76
2021/07/27 05:42:10;;;;;;;5.35;3.55;;;25.40;99.90;;;;;;5026524;28;20271;-76
2021/07/27 05:44:37;;;;;;;7.85;3.60;;;25.70;99.90;;;;;;5060409;28;20229;-76
2021/07/27 05:47:04;;;;;;;9.40;4.00;;;25.70;99.90;;;;;;5036046;28;20731;-77
2021/07/27 05:49:33;;;;;;;11.82;3.92;;;25.80;99.90;;;;;;5039984;28;20187;-76
2021/07/27 05:52:05;;;;;;;5.90;4.00;;;25.80;99.90;;;;;;5044977;28;20843;-76
2021/07/27 05:54:32;;;;;;;6.03;3.88;;;25.90;99.90;;;;;;5044720;28;20186;-77
2021/07/27 05:56:58;;;;;;;6.45;4.20;;;26.20;99.90;;;;;;5027856;28;20711;-76
2021/07/27 05:59:25;;;;;;;7.63;4.43;;;26.20;99.90;;;;;;5045176;28;20273;-77
2021/07/27 06:01:52;;;;;;;7.45;3.60;;;26.30;99.90;;;;;;5043974;28;20185;-78
2021/07/27 06:04:20;;;;;;;5.03;3.83;;;26.20;99.90;;;;;;5046263;28;20234;-76
2021/07/27 06:06:48;;;;;;;8.23;4.32;;;26.10;99.90;;;;;;5059340;28;20187;-76
2021/07/27 06:09:14;;;;;;;7.68;3.80;;;26.20;99.90;;;;;;5039900;28;20277;-77
2021/07/27 06:11:41;;;;;;;5.22;4.03;;;26.50;99.90;;;;;;5025482;28;20849;-77
2021/07/27 06:14:08;;;;;;;11.60;4.60;;;26.70;99.90;;;;;;5039803;28;20261;-77
2021/07/27 06:16:39;;;;;;;14.13;4.15;;;26.80;99.90;;;;;;5030924;28;20190;-74
2021/07/27 06:19:07;;;;;;;8.45;3.88;;;27.10;99.90;;;;;;5048839;28;20975;-78
2021/07/27 06:21:38;;;;;;;9.77;4.22;;;27.10;99.90;;;;;;5028329;28;20179;-76
2021/07/27 06:24:06;;;;;;;4.75;3.72;;;27.20;99.90;;;;;;5029984;28;20660;-76
2021/07/27 06:26:33;;;;;;;8.57;4.20;;;27.20;99.90;;;;;;5029440;28;20271;-77
2021/07/27 06:29:01;;;;;;;6.82;4.32;;;27.20;99.90;;;;;;5042783;28;20194;-77
2021/07/27 06:31:28;;;;;;;11.68;4.40;;;27.30;99.90;;;;;;5029888;28;20191;-76
2021/07/27 06:33:54;;;;;;;9.10;4.47;;;27.30;99.90;;;;;;5061674;28;20199;-77
2021/07/27 06:36:21;;;;;;;7.32;4.60;;;27.40;99.90;;;;;;5043799;28;20266;-76
2021/07/27 06:38:49;;;;;;;12.57;4.85;;;27.40;99.90;;;;;;5044872;28;21158;-75
2021/07/27 06:41:15;;;;;;;14.20;4.82;;;27.50;99.90;;;;;;5026955;28;20185;-78
2021/07/27 06:43:43;;;;;;;11.20;4.57;;;27.40;99.90;;;;;;5042776;28;20839;-76
2021/07/27 06:46:17;;;;;;;8.63;4.65;;;27.60;99.90;;;;;;5041452;28;20208;-76
2021/07/27 06:48:43;;;;;;;6.75;4.70;;;27.50;99.90;;;;;;5042641;28;20249;-77
2021/07/27 06:51:18;;;;;;;11.18;4.60;;;27.50;99.90;;;;;;5047272;28;20199;-76
2021/07/27 06:53:45;;;;;;;12.48;4.40;;;27.70;99.90;;;;;;5045621;28;20183;-76
2021/07/27 06:56:18;;;;;;;37.70;6.15;;;27.80;99.90;;;;;;5042342;28;20274;-76
2021/07/27 06:58:44;;;;;;;7.10;4.15;;;27.80;99.90;;;;;;5043489;28;20195;-76
2021/07/27 07:01:12;;;;;;;8.65;5.15;;;27.90;99.90;;;;;;5032465;28;20278;-76
2021/07/27 07:03:43;;;;;;;16.50;4.95;;;27.80;99.90;;;;;;5032861;28;20321;-75
2021/07/27 07:06:15;;;;;;;9.77;4.30;;;28.00;99.90;;;;;;5028613;28;20266;-75
2021/07/27 07:08:42;;;;;;;13.05;4.65;;;28.00;99.90;;;;;;5047041;28;20275;-75
2021/07/27 07:11:10;;;;;;;8.25;4.50;;;28.00;99.90;;;;;;5028402;28;20184;-75
2021/07/27 07:13:41;;;;;;;13.80;4.85;;;28.10;99.90;;;;;;5020446;28;20261;-76
2021/07/27 07:16:09;;;;;;;9.77;4.50;;;28.10;99.90;;;;;;5028147;28;20325;-76
2021/07/27 07:18:42;;;;;;;9.90;4.43;;;28.00;99.90;;;;;;5042770;28;20233;-77
2021/07/27 07:21:10;;;;;;;10.35;4.95;;;28.10;99.90;;;;;;5040329;28;20203;-75
2021/07/27 07:23:37;;;;;;;9.07;4.97;;;28.30;99.90;;;;;;5057020;28;20189;-75
2021/07/27 07:26:05;;;;;;;10.40;4.50;;;28.40;99.90;;;;;;5027951;28;20187;-78
2021/07/27 07:28:33;;;;;;;13.70;4.78;;;28.40;99.90;;;;;;5022939;28;20207;-76
2021/07/27 07:31:00;;;;;;;15.60;5.47;;;28.40;99.90;;;;;;5043617;28;21018;-76
2021/07/27 07:33:27;;;;;;;6.30;4.70;;;28.50;99.90;;;;;;5045594;28;20210;-75
2021/07/27 07:35:56;;;;;;;8.35;4.65;;;28.60;99.90;;;;;;5028141;28;20230;-78
2021/07/27 07:38:26;;;;;;;9.52;5.07;;;28.70;99.90;;;;;;5026018;28;20184;-77
2021/07/27 07:40:54;;;;;;;10.32;4.88;;;28.80;99.90;;;;;;5023362;28;20282;-76
2021/07/27 07:43:20;;;;;;;11.30;5.28;;;28.90;99.90;;;;;;5026088;28;20199;-77
2021/07/27 07:45:46;;;;;;;9.18;4.57;;;29.00;99.90;;;;;;5041236;28;20204;-77
2021/07/27 07:48:13;;;;;;;7.65;4.40;;;28.90;99.90;;;;;;5039445;28;20613;-77
2021/07/27 07:50:39;;;;;;;10.65;4.95;;;29.10;99.90;;;;;;5027165;28;20291;-74
2021/07/27 07:53:11;;;;;;;12.95;5.60;;;29.10;99.90;;;;;;5027184;28;20183;-75
2021/07/27 07:55:38;;;;;;;8.70;4.70;;;29.10;99.90;;;;;;5057779;28;20184;-77
2021/07/27 07:58:04;;;;;;;8.68;4.95;;;29.20;99.90;;;;;;5043784;28;20191;-75
2021/07/27 08:00:31;;;;;;;10.75;5.10;;;29.30;99.90;;;;;;5025517;28;20656;-76
2021/07/27 08:03:02;;;;;;;12.18;5.50;;;29.30;99.90;;;;;;5059874;28;20187;-75
2021/07/27 08:05:29;;;;;;;11.25;4.80;;;29.40;99.90;;;;;;5056857;28;20187;-75
2021/07/27 08:07:56;;;;;;;11.75;5.03;;;29.40;99.90;;;;;;5047555;28;20230;-77
2021/07/27 08:10:23;;;;;;;10.02;5.15;;;29.40;99.90;;;;;;5044184;28;20188;-76
2021/07/27 08:12:49;;;;;;;10.52;4.80;;;29.50;99.90;;;;;;5047522;28;20944;-75
2021/07/27 08:15:18;;;;;;;8.77;4.72;;;29.50;99.90;;;;;;5048559;28;20192;-75
2021/07/27 08:17:45;;;;;;;8.25;4.80;;;29.50;99.90;;;;;;5046423;28;20215;-77
2021/07/27 08:20:16;;;;;;;15.00;5.30;;;29.50;99.90;;;;;;5047017;28;20213;-75
2021/07/27 08:22:43;;;;;;;15.07;4.78;;;29.50;99.90;;;;;;5047341;28;20195;-75
2021/07/27 08:25:16;;;;;;;11.20;4.60;;;29.60;99.90;;;;;;5030261;28;20245;-75
2021/07/27 08:27:47;;;;;;;12.73;5.50;;;29.50;99.90;;;;;;5047539;28;20177;-77
2021/07/27 08:30:17;;;;;;;11.70;5.20;;;29.60;99.90;;;;;;5062506;28;20196;-74
2021/07/27 08:32:50;;;;;;;11.90;5.15;;;29.60;99.90;;;;;;5028994;28;20330;-77
2021/07/27 08:35:20;;;;;;;10.25;5.10;;;29.70;99.90;;;;;;5043175;28;20187;-77
2021/07/27 08:37:47;;;;;;;9.52;5.00;;;29.80;99.90;;;;;;5045297;28;20281;-78
2021/07/27 08:40:16;;;;;;;9.52;4.80;;;29.80;99.90;;;;;;5044799;28;20607;-76
2021/07/27 08:42:45;;;;;;;11.20;5.28;;;29.80;99.90;;;;;;5010344;28;20196;-78
2021/07/27 08:45:12;;;;;;;11.85;4.90;;;29.80;99.90;;;;;;5041371;28;20196;-77
2021/07/27 08:47:48;;;;;;;12.38;5.47;;;29.80;99.90;;;;;;5028070;28;20585;-78
2021/07/27 08:50:17;;;;;;;10.68;5.45;;;29.90;99.90;;;;;;5045767;28;20662;-77
2021/07/27 08:52:46;;;;;;;9.18;4.85;;;30.00;99.90;;;;;;5062664;28;20214;-77
2021/07/27 08:55:17;;;;;;;8.10;5.10;;;30.10;99.90;;;;;;5047285;28;20309;-74
2021/07/27 08:57:59;;;;;;;13.63;4.68;;;30.10;99.90;;;;;;5041810;28;20203;-77
2021/07/27 09:00:31;;;;;;;8.50;4.55;;;30.10;99.90;;;;;;5026695;28;20214;-77
2021/07/27 09:03:13;;;;;;;15.07;4.95;;;30.20;99.90;;;;;;5047340;28;20205;-77
2021/07/27 09:05:42;;;;;;;9.45;4.75;;;30.20;99.90;;;;;;5028520;28;20192;-77
2021/07/27 09:08:12;;;;;;;10.80;4.80;;;30.20;99.90;;;;;;5040696;28;20195;-78
2021/07/27 09:10:42;;;;;;;8.73;4.47;;;30.30;99.90;;;;;;5039862;28;20631;-77
2021/07/27 09:13:15;;;;;;;11.27;4.35;;;30.40;99.90;;;;;;5043287;28;20227;-77
2021/07/27 09:15:46;;;;;;;15.02;5.45;;;30.40;99.90;;;;;;5048085;28;20262;-77
2021/07/27 09:18:17;;;;;;;13.85;4.95;;;30.60;99.90;;;;;;5024959;28;20266;-77
2021/07/27 09:20:53;;;;;;;14.07;4.78;;;30.70;99.90;;;;;;5045503;28;20187;-77
2021/07/27 09:23:23;;;;;;;7.70;4.45;;;30.80;99.90;;;;;;5030252;28;20276;-77
2021/07/27 09:25:57;;;;;;;7.53;4.10;;;30.80;99.90;;;;;;5058706;28;20219;-77
2021/07/27 09:28:28;;;;;;;15.00;5.00;;;30.80;99.90;;;;;;5056064;28;20199;-77
2021/07/27 09:31:02;;;;;;;8.77;4.57;;;30.90;99.90;;;;;;5026339;28;20191;-77
2021/07/27 09:33:33;;;;;;;15.45;5.05;;;30.90;99.90;;;;;;5027911;28;20294;-78
2021/07/27 09:36:03;;;;;;;11.00;4.20;;;31.10;99.90;;;;;;5040057;28;20280;-75
2021/07/27 09:38:34;;;;;;;10.70;4.60;;;31.10;99.90;;;;;;5040835;28;20211;-77
2021/07/27 09:41:07;;;;;;;12.75;4.50;;;31.20;99.90;;;;;;5026089;28;20187;-75
2021/07/27 09:43:34;;;;;;;8.32;3.97;;;31.20;99.90;;;;;;5030102;28;20202;-77
2021/07/27 09:46:02;;;;;;;8.45;4.07;;;31.30;99.90;;;;;;5041137;28;20216;-74
2021/07/27 09:48:33;;;;;;;9.82;4.30;;;31.30;99.90;;;;;;5044635;28;20268;-75
2021/07/27 09:51:00;;;;;;;9.93;3.90;;;31.50;99.90;;;;;;5060364;28;20564;-75
2021/07/27 09:53:30;;;;;;;7.05;3.95;;;31.60;99.90;;;;;;5039578;28;20195;-75
2021/07/27 09:55:59;;;;;;;12.00;4.20;;;31.70;99.90;;;;;;5041154;28;20245;-74
2021/07/27 09:58:28;;;;;;;11.68;4.30;;;31.70;99.90;;;;;;5043945;28;20237;-76
2021/07/27 10:01:03;;;;;;;8.75;4.03;;;31.90;99.90;;;;;;5056292;28;20194;-75
2021/07/27 10:03:56;;;;;;;10.13;3.75;;;32.00;99.90;;;;;;5022958;28;20191;-75
2021/07/27 10:06:34;;;;;;;8.13;3.60;;;32.00;99.90;;;;;;5041061;28;20179;-75
2021/07/27 10:09:03;;;;;;;7.13;3.63;;;32.10;99.90;;;;;;5042788;28;20249;-75
2021/07/27 10:11:43;;;;;;;11.98;3.67;;;32.10;99.90;;;;;;5045632;28;20298;-75
2021/07/27 10:14:21;;;;;;;11.88;3.55;;;32.30;99.90;;;;;;5028680;28;20190;-76
2021/07/27 10:16:48;;;;;;;4.60;3.25;;;32.30;99.90;;;;;;5057710;28;20214;-75
2021/07/27 10:19:22;;;;;;;6.15;3.40;;;32.30;99.90;;;;;;5024959;28;20242;-75
2021/07/27 10:22:11;;;;;;;9.18;3.10;;;32.50;99.90;;;;;;5062334;28;20248;-75
2021/07/27 10:24:48;;;;;;;6.88;2.80;;;33.00;99.90;;;;;;5059809;28;20207;-75
2021/07/27 10:27:26;;;;;;;6.32;2.78;;;33.10;99.90;;;;;;5047297;28;20267;-75
2021/07/27 10:30:13;;;;;;;6.95;3.33;;;34.70;99.90;;;;;;5025748;28;20207;-78
2021/07/27 10:32:53;;;;;;;9.73;2.80;;;35.40;99.90;;;;;;5042151;28;20295;-75
2021/07/27 10:35:34;;;;;;;8.95;3.33;;;35.60;99.90;;;;;;5022409;28;20632;-75
2021/07/27 10:38:14;;;;;;;6.85;2.92;;;35.10;99.40;;;;;;5038232;28;20187;-76
2021/07/27 10:40:42;;;;;;;10.38;2.80;;;34.60;97.80;;;;;;5030238;28;20195;-75
2021/07/27 10:43:09;;;;;;;8.35;2.35;;;34.50;97.00;;;;;;5040675;28;20183;-75
2021/07/27 10:45:40;;;;;;;5.05;2.80;;;34.20;98.30;;;;;;5042596;28;20211;-74
2021/07/27 10:48:09;;;;;;;4.90;2.90;;;34.30;98.80;;;;;;5025183;28;20951;-75
2021/07/27 10:50:36;;;;;;;5.45;2.72;;;34.30;97.10;;;;;;5041013;28;20652;-75
2021/07/27 10:53:12;;;;;;;6.88;2.67;;;34.40;96.20;;;;;;5021993;28;20199;-76
2021/07/27 10:55:42;;;;;;;11.60;3.03;;;34.40;95.80;;;;;;5023526;28;20187;-74
2021/07/27 10:58:23;;;;;;;8.60;2.83;;;34.50;93.00;;;;;;5055223;28;20188;-75
2021/07/27 11:00:51;;;;;;;4.80;2.50;;;34.50;91.70;;;;;;5042224;28;20195;-75
2021/07/27 11:03:27;;;;;;;6.50;2.60;;;34.30;92.40;;;;;;5025368;28;20282;-77
2021/07/27 11:06:01;;;;;;;11.40;3.10;;;34.20;93.90;;;;;;5024076;28;20214;-74
2021/07/27 11:08:30;;;;;;;5.20;3.10;;;34.20;96.00;;;;;;5037948;28;20252;-76
2021/07/27 11:11:08;;;;;;;2.50;2.25;;;34.10;97.10;;;;;;5057073;28;20191;-75
2021/07/27 11:13:38;;;;;;;4.10;2.42;;;34.40;94.80;;;;;;5005095;28;20271;-75
2021/07/27 11:16:06;;;;;;;5.05;2.70;;;34.50;92.30;;;;;;5026062;28;20470;-75
2021/07/27 11:18:34;;;;;;;7.88;2.40;;;34.60;90.10;;;;;;5020976;28;20204;-74
2021/07/27 11:21:05;;;;;;;6.32;2.50;;;34.80;90.10;;;;;;5023166;28;20192;-75
2021/07/27 11:23:35;;;;;;;5.90;2.40;;;34.60;83.70;;;;;;5037498;28;20902;-75
2021/07/27 11:26:04;;;;;;;13.32;2.63;;;34.50;80.60;;;;;;5029311;28;20232;-75
2021/07/27 11:28:39;;;;;;;9.48;2.35;;;34.40;79.30;;;;;;5048635;28;20188;-76
2021/07/27 11:31:21;;;;;;;7.78;2.65;;;34.50;80.80;;;;;;5029692;28;20205;-75
2021/07/27 11:33:54;;;;;;;7.55;2.42;;;34.70;80.30;;;;;;5043715;28;20245;-77
2021/07/27 11:36:24;;;;;;;6.07;2.60;;;34.70;76.50;;;;;;5032560;28;20184;-77
2021/07/27 11:38:51;;;;;;;4.88;2.72;;;34.60;74.00;;;;;;5061661;28;20644;-75
2021/07/27 11:41:20;;;;;;;5.85;2.30;;;34.50;74.80;;;;;;5027227;28;20187;-77
2021/07/27 11:43:49;;;;;;;4.65;2.20;;;34.70;73.20;;;;;;5049285;28;20187;-77
2021/07/27 11:46:21;;;;;;;4.78;2.70;;;34.80;72.40;;;;;;5064672;28;20687;-75
2021/07/27 11:48:54;;;;;;;5.00;2.60;;;34.80;72.10;;;;;;5030206;28;20204;-74
2021/07/27 11:51:33;;;;;;;7.55;2.58;;;34.90;70.90;;;;;;5049375;28;20187;-75
2021/07/27 11:54:01;;;;;;;4.57;2.25;;;34.90;70.30;;;;;;5044992;28;20198;-77
2021/07/27 11:56:30;;;;;;;3.38;2.42;;;34.90;70.80;;;;;;5064281;28;20187;-75
2021/07/27 11:59:05;;;;;;;9.85;2.08;;;34.80;69.50;;;;;;5029900;28;20742;-75
2021/07/27 12:01:43;;;;;;;37.97;3.92;;;34.90;68.60;;;;;;5027340;28;20957;-78
2021/07/27 12:04:10;;;;;;;8.90;2.58;;;34.50;75.40;;;;;;5045934;28;20188;-75
2021/07/27 12:06:55;;;;;;;6.20;2.42;;;34.50;70.00;;;;;;5033895;28;20504;-75
2021/07/27 12:09:24;;;;;;;3.97;2.40;;;34.80;66.20;;;;;;5032716;28;21040;-75
2021/07/27 12:11:52;;;;;;;3.70;2.40;;;34.90;64.00;;;;;;5029965;28;20738;-75
2021/07/27 12:14:19;;;;;;;3.95;2.33;;;35.00;65.00;;;;;;5046777;28;20219;-75
2021/07/27 12:16:48;;;;;;;8.13;2.30;;;34.90;64.60;;;;;;5051793;28;20525;-75
2021/07/27 12:19:14;;;;;;;8.35;2.58;;;35.10;63.10;;;;;;5049836;28;20199;-77
2021/07/27 12:21:41;;;;;;;2.70;2.30;;;34.90;63.10;;;;;;5049545;28;20199;-75
2021/07/27 12:24:09;;;;;;;4.20;2.15;;;35.00;63.10;;;;;;5064770;28;20287;-75
2021/07/27 12:26:37;;;;;;;7.22;2.50;;;35.10;61.90;;;;;;5031352;28;20273;-75
2021/07/27 12:29:04;;;;;;;15.15;2.58;;;35.10;62.60;;;;;;5035728;28;20256;-75
2021/07/27 12:31:31;;;;;;;6.20;2.50;;;35.10;63.90;;;;;;5031021;28;20180;-75
2021/07/27 12:33:57;;;;;;;4.43;2.40;;;35.10;64.00;;;;;;5053092;28;20199;-75
2021/07/27 12:36:24;;;;;;;9.80;2.35;;;35.00;64.60;;;;;;5047620;28;20215;-75
2021/07/27 12:38:51;;;;;;;3.03;2.33;;;35.00;65.00;;;;;;5029225;28;20286;-77
2021/07/27 12:41:17;;;;;;;3.78;2.10;;;35.10;66.60;;;;;;5042391;28;20203;-76
2021/07/27 12:43:46;;;;;;;7.63;2.45;;;35.10;64.70;;;;;;5046700;28;20177;-75
2021/07/27 12:46:12;;;;;;;6.60;2.53;;;35.00;66.20;;;;;;5035637;28;20222;-75
2021/07/27 12:48:39;;;;;;;12.93;2.65;;;34.70;68.00;;;;;;5047208;28;20267;-75
2021/07/27 12:51:08;;;;;;;10.32;2.30;;;34.80;65.00;;;;;;5026616;28;20647;-75
2021/07/27 12:53:38;;;;;;;5.18;2.40;;;34.80;66.50;;;;;;5044249;28;20187;-75
2021/07/27 12:56:13;;;;;;;7.28;2.50;;;34.90;68.40;;;;;;5051437;28;20180;-76
2021/07/27 12:58:41;;;;;;;8.57;2.50;;;34.70;71.30;;;;;;5046595;28;20690;-74
2021/07/27 13:01:09;;;;;;;8.40;2.63;;;34.70;74.40;;;;;;5046587;28;20221;-75
2021/07/27 13:03:35;;;;;;;5.75;2.40;;;34.60;81.40;;;;;;5061385;28;20647;-76
2021/07/27 13:06:02;;;;;;;5.63;2.70;;;34.60;85.50;;;;;;5048876;28;20188;-74
2021/07/27 13:08:34;;;;;;;8.35;2.92;;;34.50;90.70;;;;;;5048848;28;20237;-75
2021/07/27 13:11:01;;;;;;;13.32;3.10;;;34.20;91.10;;;;;;5047868;28;20214;-75
2021/07/27 13:13:28;;;;;;;6.13;2.67;;;34.20;94.10;;;;;;5029818;28;20179;-76
2021/07/27 13:15:58;;;;;;;14.40;2.85;;;34.20;95.60;;;;;;5047146;28;20191;-75
2021/07/27 13:18:25;;;;;;;6.20;2.88;;;34.00;97.00;;;;;;5047328;28;20735;-75